createdAt,value
2018-09-27T00:02:18.334Z,4.50
2018-09-27T00:04:46.383Z,4.70
2018-09-27T00:07:14.439Z,5.00
2018-09-27T00:09:42.533Z,5.10
2018-09-27T00:12:10.595Z,4.80
2018-09-27T00:14:38.720Z,5.20
2018-09-27T00:17:06.791Z,4.47
2018-09-27T00:19:34.904Z,4.37
2018-09-27T00:22:02.934Z,4.93
2018-09-27T00:24:31.770Z,4.17
2018-09-27T00:27:00.125Z,4.83
2018-09-27T00:29:28.151Z,4.40
2018-09-27T00:31:56.231Z,5.20
2018-09-27T00:34:24.282Z,4.40
2018-09-27T00:36:52.326Z,5.50
2018-09-27T00:39:20.478Z,4.57
2018-09-27T00:41:48.570Z,4.80
2018-09-27T00:44:16.644Z,4.30
2018-09-27T00:46:44.910Z,5.47
2018-09-27T00:49:13.071Z,4.63
2018-09-27T00:51:41.109Z,4.10
2018-09-27T00:54:09.170Z,4.83
2018-09-27T00:56:37.217Z,4.73
2018-09-27T00:59:05.268Z,4.10
2018-09-27T01:01:33.329Z,3.47
2018-09-27T01:04:01.418Z,4.13
2018-09-27T01:06:29.576Z,4.33
2018-09-27T01:08:57.627Z,4.80
2018-09-27T01:11:25.705Z,4.60
2018-09-27T01:13:54.757Z,4.23
2018-09-27T01:16:22.810Z,4.07
2018-09-27T01:18:50.869Z,3.70
2018-09-27T01:21:18.933Z,4.00
2018-09-27T01:23:46.986Z,3.90
2018-09-27T01:26:15.054Z,4.00
2018-09-27T01:28:43.286Z,3.97
2018-09-27T01:31:11.340Z,4.60
2018-09-27T01:33:39.398Z,3.70
2018-09-27T01:36:07.609Z,4.63
2018-09-27T01:38:35.650Z,4.50
2018-09-27T01:41:03.697Z,3.20
2018-09-27T01:43:31.725Z,4.60
2018-09-27T01:45:59.782Z,5.43
2018-09-27T01:48:27.877Z,3.60
2018-09-27T01:50:55.951Z,4.53
2018-09-27T01:53:24.136Z,4.20
2018-09-27T01:55:52.298Z,3.93
2018-09-27T01:58:20.338Z,4.47
2018-09-27T02:00:48.386Z,6.10
2018-09-27T02:03:16.429Z,4.50
2018-09-27T02:05:44.470Z,4.60
2018-09-27T02:08:12.562Z,4.53
2018-09-27T02:10:40.801Z,5.23
2018-09-27T02:13:08.889Z,5.43
2018-09-27T02:15:36.946Z,4.83
2018-09-27T02:18:05.013Z,5.47
2018-09-27T02:20:33.073Z,5.70
2018-09-27T02:23:01.162Z,4.50
2018-09-27T02:25:29.228Z,4.93
2018-09-27T02:27:57.289Z,6.00
2018-09-27T02:30:25.434Z,7.03
2018-09-27T02:32:53.528Z,5.67
2018-09-27T02:35:21.626Z,5.37
2018-09-27T02:37:49.723Z,5.20
2018-09-27T02:40:17.819Z,4.97
2018-09-27T02:42:45.890Z,5.70
2018-09-27T02:45:14.002Z,5.97
2018-09-27T02:47:43.443Z,5.60
2018-09-27T02:50:11.512Z,7.40
2018-09-27T02:52:39.594Z,6.10
2018-09-27T02:55:07.684Z,5.83
2018-09-27T02:57:36.812Z,5.90
2018-09-27T03:00:04.948Z,5.83
2018-09-27T03:02:33.197Z,6.13
2018-09-27T03:05:01.281Z,6.20
2018-09-27T03:07:29.445Z,5.77
2018-09-27T03:09:57.546Z,5.70
2018-09-27T03:12:25.770Z,6.77
2018-09-27T03:14:54.076Z,5.43
2018-09-27T03:17:22.151Z,6.23
2018-09-27T03:19:50.231Z,6.13
2018-09-27T03:22:18.311Z,5.80
2018-09-27T03:24:46.390Z,6.30
2018-09-27T03:27:14.508Z,6.40
2018-09-27T03:29:42.576Z,7.10
2018-09-27T03:32:10.653Z,5.33
2018-09-27T03:34:39.716Z,6.77
2018-09-27T03:37:07.807Z,6.23
2018-09-27T03:39:35.923Z,6.70
2018-09-27T03:42:03.978Z,6.40
2018-09-27T03:44:32.170Z,6.83
2018-09-27T03:47:00.266Z,6.90
2018-09-27T03:49:28.344Z,8.33
2018-09-27T03:51:56.419Z,6.47
2018-09-27T03:54:24.474Z,7.83
2018-09-27T03:56:52.549Z,6.30
2018-09-27T03:59:20.907Z,6.97
2018-09-27T04:01:49.057Z,7.83
2018-09-27T04:04:17.911Z,7.40
2018-09-27T04:06:46.023Z,7.40
2018-09-27T04:09:14.091Z,6.90
2018-09-27T04:11:42.167Z,6.80
2018-09-27T04:14:10.490Z,7.57
2018-09-27T04:16:38.583Z,6.87
2018-09-27T04:19:06.656Z,7.37
2018-09-27T04:21:34.766Z,7.30
2018-09-27T04:24:02.905Z,8.20
2018-09-27T04:26:30.940Z,8.20
2018-09-27T04:28:59.510Z,7.53
2018-09-27T04:31:27.609Z,6.43
2018-09-27T04:33:55.866Z,7.37
2018-09-27T04:36:23.899Z,7.50
2018-09-27T04:38:51.965Z,7.17
2018-09-27T04:41:20.303Z,7.40
2018-09-27T04:43:48.390Z,8.20
2018-09-27T04:46:16.479Z,8.20
2018-09-27T04:48:44.578Z,8.07
2018-09-27T04:51:12.660Z,9.20
2018-09-27T04:53:40.728Z,7.80
2018-09-27T04:56:08.810Z,8.03
2018-09-27T04:58:37.985Z,8.60
2018-09-27T05:01:06.127Z,8.67
2018-09-27T05:03:34.223Z,8.53
2018-09-27T05:06:02.340Z,8.43
2018-09-27T05:08:30.414Z,9.93
2018-09-27T05:10:59.309Z,9.53
2018-09-27T05:13:27.717Z,9.73
2018-09-27T05:15:55.854Z,8.73
2018-09-27T05:18:23.966Z,9.23
2018-09-27T05:20:52.046Z,9.90
2018-09-27T05:23:20.153Z,10.30
2018-09-27T05:25:48.273Z,9.83
2018-09-27T05:28:16.397Z,11.30
2018-09-27T05:30:44.470Z,11.83
2018-09-27T05:33:12.823Z,11.57
2018-09-27T05:35:40.890Z,10.00
2018-09-27T05:38:08.963Z,10.23
2018-09-27T05:40:37.063Z,10.07
2018-09-27T05:43:05.202Z,10.83
2018-09-27T05:45:33.335Z,10.17
2018-09-27T05:48:01.379Z,11.50
2018-09-27T05:50:29.459Z,11.57
2018-09-27T05:52:59.121Z,11.67
2018-09-27T05:55:27.201Z,11.87
2018-09-27T05:57:55.271Z,11.90
2018-09-27T06:00:23.346Z,13.30
2018-09-27T06:02:51.428Z,12.23
2018-09-27T06:05:20.689Z,12.50
2018-09-27T06:07:50.237Z,11.40
2018-09-27T06:10:18.315Z,12.80
2018-09-27T06:12:46.395Z,13.40
2018-09-27T06:15:14.615Z,12.40
2018-09-27T06:17:42.703Z,13.00
2018-09-27T06:20:10.814Z,16.37
2018-09-27T06:22:39.186Z,14.60
2018-09-27T06:25:07.277Z,16.10
2018-09-27T06:27:35.349Z,16.60
2018-09-27T06:30:03.587Z,13.67
2018-09-27T06:32:31.770Z,14.97
2018-09-27T06:35:00.054Z,16.63
2018-09-27T06:37:28.103Z,16.40
2018-09-27T06:39:56.189Z,16.70
2018-09-27T06:42:24.269Z,16.30
2018-09-27T06:44:52.475Z,17.53
2018-09-27T06:47:20.545Z,16.30
2018-09-27T06:49:48.618Z,17.10
2018-09-27T06:52:16.697Z,15.73
2018-09-27T06:54:44.804Z,16.00
2018-09-27T06:57:12.875Z,16.70
2018-09-27T06:59:40.968Z,17.40
2018-09-27T07:02:09.051Z,15.57
2018-09-27T07:04:37.137Z,16.50
2018-09-27T07:07:05.261Z,18.33
2018-09-27T07:09:33.343Z,16.27
2018-09-27T07:12:01.502Z,16.57
2018-09-27T07:14:29.566Z,17.80
2018-09-27T07:16:57.615Z,17.97
2018-09-27T07:19:25.699Z,18.40
2018-09-27T07:21:53.795Z,19.57
2018-09-27T07:24:21.866Z,19.37
2018-09-27T07:26:50.283Z,22.20
2018-09-27T07:29:18.319Z,20.37
2018-09-27T07:31:46.716Z,18.83
2018-09-27T07:34:15.091Z,18.43
2018-09-27T07:36:43.227Z,20.40
2018-09-27T07:39:12.182Z,18.80
2018-09-27T07:41:40.579Z,19.50
2018-09-27T07:44:09.262Z,18.57
2018-09-27T07:46:37.739Z,19.20
2018-09-27T07:49:05.862Z,19.67
2018-09-27T07:51:33.936Z,19.17
2018-09-27T07:54:02.146Z,18.83
2018-09-27T07:56:30.280Z,20.00
2018-09-27T07:58:58.374Z,19.90
2018-09-27T08:01:26.459Z,20.00
2018-09-27T08:03:54.559Z,19.80
2018-09-27T08:06:22.701Z,20.90
2018-09-27T08:08:50.890Z,20.50
2018-09-27T08:11:19.054Z,20.23
2018-09-27T08:13:47.170Z,20.20
2018-09-27T08:16:15.250Z,19.57
2018-09-27T08:18:43.543Z,20.43
2018-09-27T08:21:11.746Z,20.00
2018-09-27T08:23:39.734Z,20.33
2018-09-27T08:26:07.831Z,20.97
2018-09-27T08:28:35.935Z,19.80
2018-09-27T08:31:04.146Z,21.10
2018-09-27T08:33:32.282Z,20.07
2018-09-27T08:36:00.402Z,18.90
2018-09-27T08:38:28.712Z,23.07
2018-09-27T08:40:57.416Z,22.60
2018-09-27T08:43:25.505Z,19.87
2018-09-27T08:45:53.927Z,21.47
2018-09-27T08:48:21.962Z,20.70
2018-09-27T08:50:50.089Z,19.97
2018-09-27T08:53:18.238Z,22.77
2018-09-27T08:55:46.388Z,18.57
2018-09-27T08:58:14.635Z,19.57
2018-09-27T09:00:42.805Z,20.27
2018-09-27T09:03:10.898Z,17.77
2018-09-27T09:05:39.283Z,18.20
2018-09-27T09:08:07.592Z,18.07
2018-09-27T09:10:35.786Z,19.07
2018-09-27T09:13:03.897Z,18.50
2018-09-27T09:15:31.993Z,18.23
2018-09-27T09:18:00.091Z,19.30
2018-09-27T09:20:28.259Z,19.37
2018-09-27T09:22:56.382Z,17.83
2018-09-27T09:25:24.483Z,16.40
2018-09-27T09:27:52.829Z,15.50
2018-09-27T09:30:21.206Z,14.70
2018-09-27T09:32:49.449Z,14.23
2018-09-27T09:35:17.798Z,13.80
2018-09-27T09:37:45.871Z,14.87
2018-09-27T09:40:13.960Z,13.20
2018-09-27T09:42:42.175Z,12.30
2018-09-27T09:45:10.266Z,12.63
2018-09-27T09:47:39.238Z,14.57
2018-09-27T09:50:07.602Z,13.23
2018-09-27T09:52:35.629Z,11.27
2018-09-27T09:55:03.850Z,11.07
2018-09-27T09:57:32.032Z,19.83
2018-09-27T10:00:00.131Z,12.03
2018-09-27T10:02:28.299Z,17.10
2018-09-27T10:04:56.338Z,11.10
2018-09-27T10:07:24.407Z,9.50
2018-09-27T10:09:52.507Z,11.57
2018-09-27T10:12:20.807Z,10.03
2018-09-27T10:14:48.890Z,10.77
2018-09-27T10:17:17.001Z,11.37
2018-09-27T10:19:45.071Z,10.63
2018-09-27T10:22:13.241Z,9.47
2018-09-27T10:24:41.926Z,11.20
2018-09-27T10:27:10.215Z,11.03
2018-09-27T10:29:38.502Z,10.30
2018-09-27T10:32:07.159Z,10.80
2018-09-27T10:34:35.422Z,10.87
2018-09-27T10:37:03.469Z,11.27
2018-09-27T10:39:31.588Z,10.77
2018-09-27T10:41:59.752Z,11.40
2018-09-27T10:44:27.875Z,10.33
2018-09-27T10:46:55.972Z,10.90
2018-09-27T10:49:24.268Z,10.77
2018-09-27T10:51:52.374Z,10.47
2018-09-27T10:54:20.504Z,11.77
2018-09-27T10:56:48.619Z,10.00
2018-09-27T10:59:16.714Z,11.10
2018-09-27T11:01:44.803Z,11.23
2018-09-27T11:04:13.469Z,12.30
2018-09-27T11:06:41.479Z,14.13
2018-09-27T11:09:10.065Z,12.87
2018-09-27T11:11:38.372Z,13.67
2018-09-27T11:14:07.140Z,14.00
2018-09-27T11:16:36.656Z,13.63
2018-09-27T11:19:05.068Z,13.50
2018-09-27T11:21:33.207Z,14.67
2018-09-27T11:24:01.274Z,14.23
2018-09-27T11:26:29.371Z,13.97
2018-09-27T11:29:02.704Z,13.10
2018-09-27T11:31:36.143Z,12.70
2018-09-27T11:34:04.395Z,14.57
2018-09-27T11:36:32.511Z,15.03
2018-09-27T11:39:00.611Z,16.10
2018-09-27T11:41:28.679Z,15.93
2018-09-27T11:43:56.798Z,14.10
2018-09-27T11:46:24.891Z,12.97
2018-09-27T11:48:53.006Z,15.27
2018-09-27T11:51:21.077Z,14.73
2018-09-27T11:53:49.287Z,14.40
2018-09-27T11:56:17.387Z,14.80
2018-09-27T11:58:45.478Z,14.47
2018-09-27T12:01:13.601Z,14.17
2018-09-27T12:03:41.686Z,15.43
2018-09-27T12:06:09.763Z,13.90
2018-09-27T12:08:37.835Z,15.63
2018-09-27T12:11:05.993Z,14.63
2018-09-27T12:13:34.283Z,12.90
2018-09-27T12:16:02.442Z,12.97
2018-09-27T12:18:30.530Z,11.33
2018-09-27T12:20:58.611Z,13.40
2018-09-27T12:23:26.709Z,13.90
2018-09-27T12:25:54.812Z,14.77
2018-09-27T12:28:22.942Z,13.53
2018-09-27T12:30:51.231Z,13.13
2018-09-27T12:33:19.291Z,14.00
2018-09-27T12:35:48.195Z,12.47
2018-09-27T12:38:16.451Z,12.37
2018-09-27T12:40:44.570Z,12.77
2018-09-27T12:43:12.598Z,12.30
2018-09-27T12:45:40.769Z,13.47
2018-09-27T12:48:08.842Z,12.17
2018-09-27T12:50:37.775Z,12.30
2018-09-27T12:53:05.982Z,12.90
2018-09-27T12:55:34.433Z,13.30
2018-09-27T12:58:02.811Z,13.33
2018-09-27T13:00:30.983Z,12.83
2018-09-27T13:02:59.275Z,14.30
2018-09-27T13:05:27.255Z,11.97
2018-09-27T13:07:55.401Z,13.50
2018-09-27T13:10:24.388Z,12.30
2018-09-27T13:12:52.555Z,11.97
2018-09-27T13:15:20.601Z,11.40
2018-09-27T13:17:48.688Z,11.10
2018-09-27T13:20:16.902Z,12.47
2018-09-27T13:22:44.975Z,11.70
2018-09-27T13:25:13.171Z,12.20
2018-09-27T13:27:41.299Z,11.37
2018-09-27T13:30:09.611Z,11.80
2018-09-27T13:32:37.838Z,11.23
2018-09-27T13:35:05.901Z,11.43
2018-09-27T13:37:33.976Z,11.33
2018-09-27T13:40:02.200Z,11.90
2018-09-27T13:42:30.407Z,10.83
2018-09-27T13:44:58.543Z,12.70
2018-09-27T13:47:26.597Z,10.97
2018-09-27T13:49:54.680Z,11.63
2018-09-27T13:52:22.748Z,12.90
2018-09-27T13:54:50.884Z,13.33
2018-09-27T13:57:19.041Z,12.10
2018-09-27T13:59:47.250Z,10.93
2018-09-27T14:02:15.338Z,11.50
2018-09-27T14:04:43.416Z,10.93
2018-09-27T14:07:11.507Z,11.83
2018-09-27T14:09:39.807Z,10.50
2018-09-27T14:12:07.881Z,9.57
2018-09-27T14:14:36.388Z,9.37
2018-09-27T14:17:04.489Z,9.40
2018-09-27T14:19:32.749Z,8.73
2018-09-27T14:22:00.815Z,9.10
2018-09-27T14:24:28.915Z,9.03
2018-09-27T14:26:56.997Z,8.90
2018-09-27T14:29:25.120Z,8.60
2018-09-27T14:31:53.266Z,8.47
2018-09-27T14:34:21.472Z,7.80
2018-09-27T14:36:49.561Z,10.60
2018-09-27T14:39:17.649Z,9.70
2018-09-27T14:41:45.758Z,8.80
2018-09-27T14:44:13.838Z,8.30
2018-09-27T14:46:41.944Z,8.53
2018-09-27T14:49:10.055Z,8.80
2018-09-27T14:51:38.136Z,7.67
2018-09-27T14:54:06.259Z,9.30
2018-09-27T14:56:34.379Z,8.77
2018-09-27T14:59:02.442Z,8.37
2018-09-27T15:01:30.518Z,9.50
2018-09-27T15:03:59.551Z,9.50
2018-09-27T15:06:27.665Z,7.97
2018-09-27T15:08:55.714Z,9.03
2018-09-27T15:11:23.946Z,8.93
2018-09-27T15:13:52.151Z,9.80
2018-09-27T15:16:20.272Z,8.60
2018-09-27T15:18:48.318Z,10.00
2018-09-27T15:21:16.386Z,9.07
2018-09-27T15:23:44.475Z,9.23
2018-09-27T15:26:12.559Z,10.07
2018-09-27T15:28:40.645Z,9.43
2018-09-27T15:31:08.743Z,9.70
2018-09-27T15:33:36.896Z,9.70
2018-09-27T15:36:05.139Z,9.07
2018-09-27T15:38:33.484Z,10.37
2018-09-27T15:41:01.567Z,10.30
2018-09-27T15:43:29.649Z,9.87
2018-09-27T15:45:57.775Z,9.97
2018-09-27T15:48:25.851Z,9.80
2018-09-27T15:50:54.125Z,9.83
2018-09-27T15:53:22.293Z,8.87
2018-09-27T15:55:51.098Z,9.23
2018-09-27T15:58:19.214Z,8.73
2018-09-27T16:00:47.288Z,9.83
2018-09-27T16:03:15.358Z,9.70
2018-09-27T16:05:43.433Z,9.40
2018-09-27T16:08:11.510Z,9.73
2018-09-27T16:10:39.628Z,10.23
2018-09-27T16:13:07.710Z,10.23
2018-09-27T16:15:35.787Z,9.00
2018-09-27T16:18:04.498Z,8.93
2018-09-27T16:20:32.578Z,10.33
2018-09-27T16:23:00.643Z,9.77
2018-09-27T16:25:28.731Z,9.90
2018-09-27T16:27:56.821Z,9.97
2018-09-27T16:30:24.906Z,11.43
2018-09-27T16:32:52.991Z,9.93
2018-09-27T16:35:21.093Z,9.93
2018-09-27T16:37:49.173Z,10.03
2018-09-27T16:40:17.279Z,8.87
2018-09-27T16:42:45.331Z,9.17
2018-09-27T16:45:13.519Z,9.80
2018-09-27T16:47:41.621Z,9.30
2018-09-27T16:50:09.678Z,8.80
2018-09-27T16:52:37.750Z,8.67
2018-09-27T16:55:05.851Z,8.10
2018-09-27T16:57:33.907Z,8.07
2018-09-27T17:00:01.993Z,8.57
2018-09-27T17:02:30.088Z,8.90
2018-09-27T17:04:58.171Z,9.13
2018-09-27T17:07:26.239Z,10.00
2018-09-27T17:09:54.516Z,10.10
2018-09-27T17:12:22.619Z,8.83
2018-09-27T17:14:50.738Z,10.43
2018-09-27T17:17:18.886Z,11.70
2018-09-27T17:19:46.956Z,11.17
2018-09-27T17:22:15.043Z,11.60
2018-09-27T17:24:43.219Z,11.00
2018-09-27T17:27:11.251Z,11.03
2018-09-27T17:29:39.358Z,11.27
2018-09-27T17:32:07.439Z,10.83
2018-09-27T17:34:35.686Z,9.77
2018-09-27T17:37:04.447Z,11.80
2018-09-27T17:39:32.595Z,12.23
2018-09-27T17:42:00.792Z,11.73
2018-09-27T17:44:28.860Z,12.40
2018-09-27T17:46:56.939Z,12.10
2018-09-27T17:49:25.327Z,14.20
2018-09-27T17:51:53.395Z,16.00
2018-09-27T17:54:21.552Z,13.30
2018-09-27T17:56:49.619Z,12.90
2018-09-27T17:59:19.061Z,13.70
2018-09-27T18:01:47.217Z,14.20
2018-09-27T18:04:15.210Z,13.50
2018-09-27T18:06:43.324Z,13.10
2018-09-27T18:09:12.608Z,13.57
2018-09-27T18:11:41.499Z,14.20
2018-09-27T18:14:09.524Z,14.20
2018-09-27T18:16:37.873Z,16.23
2018-09-27T18:19:06.266Z,15.23
2018-09-27T18:21:34.396Z,15.30
2018-09-27T18:24:02.603Z,15.67
2018-09-27T18:26:30.701Z,16.13
2018-09-27T18:28:58.807Z,16.80
2018-09-27T18:31:27.040Z,17.27
2018-09-27T18:33:55.135Z,17.03
2018-09-27T18:36:23.256Z,14.73
2018-09-27T18:38:51.538Z,14.80
2018-09-27T18:41:19.621Z,21.77
2018-09-27T18:43:47.703Z,17.47
2018-09-27T18:46:15.784Z,15.30
2018-09-27T18:48:43.965Z,14.27
2018-09-27T18:51:12.076Z,16.50
2018-09-27T18:53:40.148Z,14.77
2018-09-27T18:56:08.297Z,15.33
2018-09-27T18:58:36.421Z,16.00
2018-09-27T19:01:04.593Z,16.80
2018-09-27T19:03:32.780Z,16.97
2018-09-27T19:06:01.344Z,18.43
2018-09-27T19:08:29.662Z,18.40
2018-09-27T19:10:58.666Z,14.57
2018-09-27T19:13:27.094Z,17.50
2018-09-27T19:15:56.927Z,17.53
2018-09-27T19:18:26.912Z,17.40
2018-09-27T19:20:56.377Z,18.63
2018-09-27T19:23:24.525Z,16.03
2018-09-27T19:25:52.617Z,19.23
2018-09-27T19:28:20.749Z,18.73
2018-09-27T19:30:48.882Z,16.03
2018-09-27T19:33:17.002Z,17.47
2018-09-27T19:35:45.099Z,18.73
2018-09-27T19:38:13.204Z,18.90
2018-09-27T19:40:41.311Z,17.30
2018-09-27T19:43:09.401Z,16.30
2018-09-27T19:45:37.498Z,18.47
2018-09-27T19:48:05.919Z,18.50
2018-09-27T19:50:34.007Z,16.60
2018-09-27T19:53:02.109Z,16.40
2018-09-27T19:55:30.219Z,18.00
2018-09-27T19:57:58.481Z,16.47
2018-09-27T20:00:26.531Z,14.67
2018-09-27T20:02:54.655Z,16.77
2018-09-27T20:05:22.766Z,17.33
2018-09-27T20:07:50.879Z,16.23
2018-09-27T20:10:19.006Z,16.17
2018-09-27T20:12:47.123Z,15.60
2018-09-27T20:15:15.313Z,14.80
2018-09-27T20:17:44.019Z,15.47
2018-09-27T20:20:12.275Z,14.10
2018-09-27T20:22:40.359Z,13.40
2018-09-27T20:25:08.455Z,11.77
2018-09-27T20:27:37.872Z,9.83
2018-09-27T20:30:06.134Z,11.70
2018-09-27T20:32:34.290Z,10.97
2018-09-27T20:35:02.650Z,9.30
2018-09-27T20:37:30.954Z,10.27
2018-09-27T20:39:59.033Z,9.67
2018-09-27T20:42:27.163Z,9.40
2018-09-27T20:44:55.214Z,9.17
2018-09-27T20:47:23.329Z,7.70
2018-09-27T20:49:51.412Z,10.60
2018-09-27T20:52:19.491Z,11.87
2018-09-27T20:54:47.575Z,9.73
2018-09-27T20:57:15.646Z,9.30
2018-09-27T20:59:43.731Z,9.47
2018-09-27T21:02:11.821Z,9.40
2018-09-27T21:04:39.976Z,11.00
2018-09-27T21:07:08.084Z,10.07
2018-09-27T21:09:36.297Z,10.73
2018-09-27T21:12:04.387Z,9.80
2018-09-27T21:14:32.576Z,12.30
2018-09-27T21:17:00.646Z,9.37
2018-09-27T21:19:28.911Z,9.90
2018-09-27T21:21:56.990Z,10.33
2018-09-27T21:24:31.845Z,10.20
2018-09-27T21:26:59.944Z,11.63
2018-09-27T21:29:28.191Z,11.30
2018-09-27T21:31:56.334Z,11.70
2018-09-27T21:34:24.482Z,10.17
2018-09-27T21:36:52.600Z,11.10
2018-09-27T21:39:20.694Z,11.27
2018-09-27T21:41:48.887Z,11.70
2018-09-27T21:44:16.969Z,11.50
2018-09-27T21:46:45.199Z,12.13
2018-09-27T21:49:13.305Z,12.50
2018-09-27T21:51:41.480Z,14.50
2018-09-27T21:54:09.587Z,13.30
2018-09-27T21:56:37.814Z,14.67
2018-09-27T21:59:05.941Z,13.90
2018-09-27T22:01:34.259Z,12.93
2018-09-27T22:04:02.366Z,14.40
2018-09-27T22:06:30.443Z,15.13
2018-09-27T22:08:58.542Z,14.83
2018-09-27T22:11:26.762Z,15.17
2018-09-27T22:13:55.002Z,13.80
2018-09-27T22:16:23.099Z,14.70
2018-09-27T22:18:51.182Z,14.60
2018-09-27T22:21:19.268Z,14.80
2018-09-27T22:23:47.335Z,16.33
2018-09-27T22:26:15.438Z,16.73
2018-09-27T22:28:43.519Z,16.30
2018-09-27T22:31:11.579Z,16.37
2018-09-27T22:33:39.876Z,19.80
2018-09-27T22:36:08.179Z,21.90
2018-09-27T22:38:36.279Z,22.77
2018-09-27T22:41:04.354Z,23.87
2018-09-27T22:43:33.394Z,24.07
2018-09-27T22:46:01.488Z,25.90
2018-09-27T22:48:29.640Z,25.73
2018-09-27T22:50:57.770Z,25.40
2018-09-27T22:53:25.978Z,27.90
2018-09-27T22:55:54.277Z,27.77
2018-09-27T22:58:22.363Z,27.80
2018-09-27T23:00:50.452Z,28.63
2018-09-27T23:03:18.523Z,28.70
2018-09-27T23:05:46.598Z,29.67
2018-09-27T23:08:14.869Z,29.83
2018-09-27T23:10:43.104Z,33.33
2018-09-27T23:13:11.183Z,35.50
2018-09-27T23:15:39.610Z,34.03
2018-09-27T23:18:07.678Z,29.97
2018-09-27T23:20:35.759Z,29.10
2018-09-27T23:23:03.831Z,30.10
2018-09-27T23:25:31.895Z,30.30
2018-09-27T23:28:00.163Z,29.17
2018-09-27T23:30:28.239Z,28.73
2018-09-27T23:32:56.339Z,26.53
2018-09-27T23:35:24.410Z,25.00
2018-09-27T23:37:52.504Z,20.13
2018-09-27T23:40:21.031Z,19.60
2018-09-27T23:42:49.123Z,18.50
2018-09-27T23:45:17.415Z,14.90
2018-09-27T23:47:45.502Z,11.60
2018-09-27T23:50:14.087Z,10.53
2018-09-27T23:52:42.187Z,9.47
2018-09-27T23:55:10.263Z,9.13
2018-09-27T23:57:38.328Z,8.53
